Gas Grouper — V7TZ2 — position and weather

sailwx.info

Track history (hours):
 
Tides and Currents Weather Stations Pressure Air Temp Water Temp Dewpoint Dewpoint Depression Visibility Wind Speed Wind Dir Waves Ship Positions

Gas Grouper

Last reported at 2015-Mar-28 03:18 UTC. Time now 2015-Mar-30 17:33 UTC.
Position N 40°53' E 028°35'.

Length 174 m; draft 10.5 m.

Type: Tanker. MMSI: 538003910.

Date/timePositionNaut miles runAvg speedWind from/ knotsBaromVisibWave heightAir tempDewpointWater temp
2015-Mar-28 03:18N 40°53' E 028°35'1113.9
2015-Mar-28 02:29N 40°55' E 028°49'3 0.9
2015-Mar-27 23:31N 40°56' E 028°52'0 0.0
2015-Mar-27 22:31N 40°56' E 028°52'0 0.1
2015-Mar-27 20:29N 40°56' E 028°52'7 8.0
2015-Mar-27 19:33N 41°01' E 028°60'1511.2
2015-Mar-27 18:12N 41°15' E 029°08'710.2
2015-Mar-27 17:32N 41°21' E 029°12'1110.8
2015-Mar-27 16:32N 41°25' E 029°25'1 1.5
2015-Mar-27 15:34N 41°26' E 029°26'1 0.6
2015-Mar-27 14:34N 41°26' E 029°25'1 0.5
2015-Mar-27 13:34N 41°26' E 029°25'1 0.6
2015-Mar-27 12:34N 41°27' E 029°24'1 0.6
2015-Mar-27 11:34N 41°27' E 029°23'1 0.6
2015-Mar-27 10:34N 41°27' E 029°22'1 0.6
2015-Mar-27 09:12N 41°27' E 029°21'0 0.7
2015-Mar-27 08:33N 41°27' E 029°21'9 0.8
2015-Mar-26 21:24N 41°29' E 029°08'1 0.2
2015-Mar-26 18:17N 41°28' E 029°09'0 0.3
2015-Mar-26 17:34N 41°28' E 029°09'0 0.2
2015-Mar-26 16:34N 41°28' E 029°08'0 0.2
2015-Mar-26 15:34N 41°28' E 029°08'0 0.2
2015-Mar-26 14:34N 41°27' E 029°08'0 0.1
2015-Mar-26 13:34N 41°27' E 029°08'0 0.4
2015-Mar-26 12:34N 41°28' E 029°08'2 1.9
2015-Mar-26 11:34N 41°26' E 029°08'1 0.5
2015-Mar-26 10:34N 41°26' E 029°08'1 0.4
2015-Mar-26 07:33N 41°27' E 029°07'3 0.3
2015-Mar-25 21:34N 41°30' E 029°09'0 0.2
2015-Mar-25 20:34N 41°30' E 029°09'0 0.4
2015-Mar-25 19:33N 41°31' E 029°08'3 3.1
2015-Mar-25 18:34N 41°34' E 029°09'1313.3
2015-Mar-25 17:33N 41°45' E 029°17'1514.0
2015-Mar-25 16:28N 42°00' E 029°22'1314.2
2015-Mar-25 15:33N 42°13' E 029°26'1414.3
2015-Mar-25 14:33N 42°27' E 029°31'1614.4
2015-Mar-25 13:26N 42°42' E 029°35'  
2015-Mar-21 06:32N 46°30' E 030°58'  
Track history (hours):
 
Tides and Currents Weather Stations Pressure Air Temp Water Temp Dewpoint Dewpoint Depression Visibility Wind Speed Wind Dir Waves Ship Positions

Gas Grouper

Last reported at 2015-Mar-28 03:18 UTC. Time now 2015-Mar-30 17:33 UTC.
Position N 40°53' E 028°35'.

Length 174 m; draft 10.5 m.

Type: Tanker. MMSI: 538003910.

Date/timePositionNaut miles runAvg speedWind from/ knotsBaromVisibWave heightAir tempDewpointWater temp
2015-Mar-28 03:18N 40°53' E 028°35'1113.9
2015-Mar-28 02:29N 40°55' E 028°49'3 0.9
2015-Mar-27 23:31N 40°56' E 028°52'0 0.0
2015-Mar-27 22:31N 40°56' E 028°52'0 0.1
2015-Mar-27 20:29N 40°56' E 028°52'7 8.0
2015-Mar-27 19:33N 41°01' E 028°60'1511.2
2015-Mar-27 18:12N 41°15' E 029°08'710.2
2015-Mar-27 17:32N 41°21' E 029°12'1110.8
2015-Mar-27 16:32N 41°25' E 029°25'1 1.5
2015-Mar-27 15:34N 41°26' E 029°26'1 0.6
2015-Mar-27 14:34N 41°26' E 029°25'1 0.5
2015-Mar-27 13:34N 41°26' E 029°25'1 0.6
2015-Mar-27 12:34N 41°27' E 029°24'1 0.6
2015-Mar-27 11:34N 41°27' E 029°23'1 0.6
2015-Mar-27 10:34N 41°27' E 029°22'1 0.6
2015-Mar-27 09:12N 41°27' E 029°21'0 0.7
2015-Mar-27 08:33N 41°27' E 029°21'9 0.8
2015-Mar-26 21:24N 41°29' E 029°08'1 0.2
2015-Mar-26 18:17N 41°28' E 029°09'0 0.3
2015-Mar-26 17:34N 41°28' E 029°09'0 0.2
2015-Mar-26 16:34N 41°28' E 029°08'0 0.2
2015-Mar-26 15:34N 41°28' E 029°08'0 0.2
2015-Mar-26 14:34N 41°27' E 029°08'0 0.1
2015-Mar-26 13:34N 41°27' E 029°08'0 0.4
2015-Mar-26 12:34N 41°28' E 029°08'2 1.9
2015-Mar-26 11:34N 41°26' E 029°08'1 0.5
2015-Mar-26 10:34N 41°26' E 029°08'1 0.4
2015-Mar-26 07:33N 41°27' E 029°07'3 0.3
2015-Mar-25 21:34N 41°30' E 029°09'0 0.2
2015-Mar-25 20:34N 41°30' E 029°09'0 0.4
2015-Mar-25 19:33N 41°31' E 029°08'3 3.1
2015-Mar-25 18:34N 41°34' E 029°09'1313.3
2015-Mar-25 17:33N 41°45' E 029°17'1514.0
2015-Mar-25 16:28N 42°00' E 029°22'1314.2
2015-Mar-25 15:33N 42°13' E 029°26'1414.3
2015-Mar-25 14:33N 42°27' E 029°31'1614.4
2015-Mar-25 13:26N 42°42' E 029°35'  
2015-Mar-21 06:32N 46°30' E 030°58'  

Dump ship's entire track history